createdAt,value
2023-05-05T00:01:16.713Z,16.276843533900045
2023-05-05T00:04:17.870Z,16.245369882326123
2023-05-05T00:07:16.884Z,16.190772757534525
2023-05-05T00:11:16.103Z,16.10791365444311
2023-05-05T00:14:16.618Z,16.084790197318945
2023-05-05T00:17:17.393Z,16.044966479420328
2023-05-05T00:21:16.799Z,15.956968971213882
2023-05-05T00:24:16.922Z,15.940911040968786
2023-05-05T00:27:17.091Z,15.917787626408971
2023-05-05T00:31:16.282Z,15.865759965197594
2023-05-05T00:34:16.284Z,15.849702051096028
2023-05-05T00:37:16.833Z,15.815016966336406
2023-05-05T00:41:16.458Z,15.722523471806198
2023-05-05T00:44:16.850Z,15.704538636597864
2023-05-05T00:47:17.448Z,15.682699912923635
2023-05-05T00:51:17.451Z,15.593418126696724
2023-05-05T00:54:17.301Z,15.59277581200622
2023-05-05T00:57:17.753Z,15.569652486176711
2023-05-05T01:01:16.870Z,15.459816768969995
2023-05-05T01:04:17.222Z,15.433481909169132
2023-05-05T01:07:40.124Z,15.396870043610487
2023-05-05T01:11:24.550Z,15.360900505870905
2023-05-05T01:14:22.170Z,15.312727040166283
2023-05-05T01:17:19.782Z,15.288319160639366
2023-05-05T01:21:22.527Z,15.216380185495655
2023-05-05T01:24:42.328Z,15.22473024218425
2023-05-05T01:27:36.705Z,15.213810937438392
2023-05-05T01:31:27.139Z,15.125171924019014
2023-05-05T01:34:22.307Z,15.110398763535432
2023-05-05T01:37:21.645Z,15.060298498068823
2023-05-05T01:41:21.227Z,14.990928945405267
2023-05-05T01:44:18.873Z,14.97808273776982
2023-05-05T01:47:20.213Z,14.960740360347335
2023-05-05T01:51:18.413Z,14.882378548140696
2023-05-05T01:54:18.924Z,14.865036189012699
2023-05-05T01:57:18.190Z,14.845766904980792
2023-05-05T02:01:19.960Z,14.787316768453456
2023-05-05T02:04:19.050Z,14.75969748627258
2023-05-05T02:07:17.600Z,14.738501298673508
2023-05-05T02:11:17.436Z,14.681978155953402
2023-05-05T02:14:18.993Z,14.681978155953402
2023-05-05T02:17:18.398Z,14.62481274061147
2023-05-05T02:21:18.392Z,14.546451218560923
2023-05-05T02:24:16.703Z,14.54131276046328
2023-05-05T02:27:19.337Z,14.518832009708058
2023-05-05T02:31:19.472Z,14.465520537328938
2023-05-05T02:34:20.446Z,14.464235923923207
2023-05-05T02:37:20.408Z,14.47194360463045
2023-05-05T02:41:19.704Z,14.359539992508143
2023-05-05T02:44:19.328Z,14.421201385342647
2023-05-05T02:47:17.028Z,14.387159152866753
2023-05-05T02:51:15.909Z,14.305586308156853
2023-05-05T02:54:16.559Z,14.26062492904166
2023-05-05T02:57:19.347Z,14.24135577338493
2023-05-05T03:01:28.458Z,14.218875096958163
2023-05-05T03:04:24.643Z,14.114821752918306
2023-05-05T03:07:24.743Z,14.14950618767116
2023-05-05T03:11:25.398Z,14.08784497950046
2023-05-05T03:14:19.851Z,14.07178738008406
2023-05-05T03:17:19.363Z,14.007557010840173
2023-05-05T03:21:17.463Z,13.969661114316205
2023-05-05T03:24:18.537Z,14.0088416177794
2023-05-05T03:27:17.070Z,13.899650092883167
2023-05-05T03:31:17.462Z,13.884877131960911
2023-05-05T03:34:17.153Z,13.91121154223947
2023-05-05T03:37:17.015Z,13.839273659071477
2023-05-05T03:41:15.804Z,13.79238560521344
2023-05-05T03:44:16.101Z,13.832208334336702
2023-05-05T03:47:16.298Z,13.78210877472893
2023-05-05T03:51:16.730Z,13.728797735273838
2023-05-05T03:54:16.931Z,13.711455596661926
2023-05-05T03:57:17.035Z,13.72815543378465
2023-05-05T04:01:16.413Z,13.679340533912272
2023-05-05T04:04:16.739Z,13.663283006800702
2023-05-05T04:07:16.519Z,13.652363889988283
2023-05-05T04:11:16.807Z,13.656859996751882
2023-05-05T04:14:17.065Z,13.65942920071684
2023-05-05T04:17:17.055Z,13.635021765987403
2023-05-05T04:21:16.257Z,13.646583181619643
2023-05-05T04:24:17.108Z,13.669063716233449
2023-05-05T04:27:16.654Z,13.694755762613294
2023-05-05T04:31:16.532Z,13.620891148882219
2023-05-05T04:34:16.769Z,13.641444774490083
2023-05-05T04:37:16.787Z,13.563084101825734
2023-05-05T04:41:16.778Z,13.529042191347344
2023-05-05T04:44:16.972Z,13.541888193800787
2023-05-05T04:47:16.940Z,13.55473419807322
2023-05-05T04:51:16.137Z,13.529684491426815
2023-05-05T04:54:16.158Z,13.559230299998308
2023-05-05T04:57:16.097Z,13.550238096370958
2023-05-05T05:01:16.252Z,13.52326149083674
2023-05-05T05:04:18.766Z,13.491788794518744
2023-05-05T05:07:16.156Z,13.504634791697118
2023-05-05T05:11:16.804Z,13.53803439287376
2023-05-05T05:14:17.471Z,13.531611391692513
2023-05-05T05:17:18.428Z,13.517480790694481
2023-05-05T05:21:16.394Z,13.543172794146177
2023-05-05T05:24:16.636Z,13.55537649833459
2023-05-05T05:27:16.578Z,13.59455682287744
2023-05-05T05:31:15.819Z,13.583637714336874
2023-05-05T05:34:16.181Z,13.605475932732224
2023-05-05T05:37:16.087Z,13.649794686223412
2023-05-05T05:41:16.165Z,13.615110442519017
2023-05-05T05:44:16.528Z,13.647225482531303
2023-05-05T05:47:16.654Z,13.69154425641791
2023-05-05T05:51:16.579Z,13.721090117703715
2023-05-05T05:54:16.926Z,13.696040365123281
2023-05-05T05:57:16.936Z,13.670348318379638
2023-05-05T06:01:19.691Z,13.72751313230001
2023-05-05T06:04:20.112Z,13.777612661758031
2023-05-05T06:07:20.305Z,13.788531793645324
2023-05-05T06:11:16.911Z,13.809085457233687
2023-05-05T06:14:18.077Z,13.830923729898586
2023-05-05T06:17:16.964Z,13.841842868202367
2023-05-05T06:21:16.617Z,13.906073120121437
2023-05-05T06:24:16.996Z,13.944611293100753
2023-05-05T06:27:16.957Z,13.995995549205691
2023-05-05T06:31:15.869Z,14.052518264536047
2023-05-05T06:34:16.381Z,14.107756406724002
2023-05-05T06:37:16.223Z,14.146936969827312
2023-05-05T06:41:16.632Z,14.206671303516487
2023-05-05T06:44:16.882Z,14.272828729741104
2023-05-05T06:47:17.137Z,14.328067006070432
2023-05-05T06:51:16.747Z,14.377524561089013
2023-05-05T06:54:16.366Z,14.448820564473227
2023-05-05T06:57:16.559Z,14.531678152314635
2023-05-05T07:01:16.325Z,14.637658898224709
2023-05-05T07:04:16.770Z,14.700605096823073
2023-05-05T07:07:17.097Z,14.804659112724858
2023-05-05T07:11:16.820Z,14.9292671653443
2023-05-05T07:14:16.916Z,15.002490533832406
2023-05-05T07:17:16.932Z,15.088560182879245
2023-05-05T07:21:16.902Z,15.172060666705601
2023-05-05T07:24:16.950Z,15.252991978217414
2023-05-05T07:27:16.942Z,15.324930982392198
2023-05-05T07:31:16.603Z,15.418066385027851
2023-05-05T07:34:16.973Z,15.486151636415162
2023-05-05T07:37:16.937Z,15.54331759449351
2023-05-05T07:41:16.047Z,15.666642031222818
2023-05-05T07:44:16.357Z,15.730873575079112
2023-05-05T07:47:16.437Z,15.818228547701528
2023-05-05T07:51:16.389Z,15.894664217742683
2023-05-05T07:54:16.734Z,15.946691895529602
2023-05-05T07:57:16.602Z,16.00771204946941
2023-05-05T08:01:16.661Z,16.079009333958766
2023-05-05T08:04:16.893Z,16.1458104441409
2023-05-05T08:07:16.926Z,16.194626671147944
2023-05-05T08:11:16.800Z,16.31474039416098
2023-05-05T08:14:16.717Z,16.414942338230684
2023-05-05T08:17:16.967Z,16.501655648383984
2023-05-05T08:21:16.567Z,16.597361546176035
2023-05-05T08:24:16.748Z,16.698848447413184
2023-05-05T08:27:16.739Z,16.827313042158494
2023-05-05T08:31:16.306Z,16.93072717308032
2023-05-05T08:34:16.665Z,17.027718173176982
2023-05-05T08:37:18.936Z,17.14269439369391
2023-05-05T08:41:17.535Z,17.29813733688361
2023-05-05T08:44:17.120Z,17.366866326425225
2023-05-05T08:47:17.212Z,17.48184297673297
2023-05-05T08:51:19.011Z,17.583973196128863
2023-05-05T08:54:19.057Z,17.64306746363036
2023-05-05T08:57:24.224Z,17.741343885032347
2023-05-05T09:01:17.439Z,17.865955971115273
2023-05-05T09:04:19.779Z,17.94624735435973
2023-05-05T09:07:17.812Z,18.038100783930076
2023-05-05T09:11:16.823Z,18.156932281834088
2023-05-05T09:14:17.116Z,18.27447926801842
2023-05-05T09:17:25.751Z,18.385603061659275
2023-05-05T09:21:19.310Z,18.47617226581433
2023-05-05T09:24:16.864Z,18.602712369117945
2023-05-05T09:27:21.591Z,18.683646740924814
2023-05-05T09:31:16.623Z,18.78642065044005
2023-05-05T09:34:16.808Z,18.909749495526558
2023-05-05T09:37:27.092Z,19.004815594695174
2023-05-05T09:41:36.448Z,19.138422172703212
2023-05-05T09:44:31.406Z,19.264320858946668
2023-05-05T09:47:28.975Z,19.361314353709986
2023-05-05T09:51:27.509Z,19.56236742473011
2023-05-05T09:54:22.691Z,19.67156576501584
2023-05-05T09:57:33.611Z,19.820589594404737
2023-05-05T10:01:22.140Z,19.954197373673377
2023-05-05T10:04:25.956Z,20.116710947303453
2023-05-05T10:07:23.241Z,20.264450812283847
2023-05-05T10:11:16.431Z,20.459724742062917
2023-05-05T10:14:17.666Z,20.60361106450373
2023-05-05T10:17:18.321Z,20.739147050140673
2023-05-05T10:21:19.765Z,20.85733973367642
2023-05-05T10:24:25.273Z,20.99287609832254
2023-05-05T10:27:19.761Z,21.116207942558777
2023-05-05T10:31:25.225Z,21.345528536072017
2023-05-05T10:34:22.960Z,21.482350342709925
2023-05-05T10:37:18.880Z,21.641012508279893
2023-05-05T10:41:19.677Z,21.842712989734718
2023-05-05T10:44:17.271Z,22.025785470935897
2023-05-05T10:47:17.130Z,22.146549274760126
2023-05-05T10:51:39.460Z,22.362382856386194
2023-05-05T10:54:22.345Z,22.58913714247501
2023-05-05T10:57:20.224Z,22.70604750570492
2023-05-05T11:01:28.477Z,22.894903026041355
2023-05-05T11:04:18.199Z,23.04971345662425
2023-05-05T11:07:24.102Z,23.183968359231947
2023-05-05T11:11:16.487Z,23.380533311798718
2023-05-05T11:14:19.798Z,23.548834361188348
2023-05-05T11:18:08.276Z,23.686301862149048
2023-05-05T11:21:16.826Z,23.949674758786568
2023-05-05T11:24:27.235Z,24.073010621970752
2023-05-05T11:28:02.864Z,24.295272548668798
2023-05-05T11:31:18.508Z,24.468714314722455
2023-05-05T11:34:25.809Z,24.541945382146878
2023-05-05T11:37:16.580Z,24.70639431032796
2023-05-05T11:41:25.145Z,24.793757924641614
2023-05-05T11:44:18.666Z,24.852856887900636
2023-05-05T11:47:32.601Z,24.919022077217324
2023-05-05T11:51:17.538Z,24.933796834819077
2023-05-05T11:54:20.246Z,24.98133302777169
2023-05-05T11:57:19.360Z,24.999319701869172
2023-05-05T12:11:17.917Z,24.987114458342784
2023-05-05T12:14:17.589Z,25.107882203371354
2023-05-05T12:17:18.558Z,25.0931074174252
2023-05-05T12:21:17.616Z,25.06098832584139
2023-05-05T12:24:17.388Z,25.071266433911298
2023-05-05T12:27:17.081Z,25.07190881570432
2023-05-05T12:31:16.152Z,25.102100765105934
2023-05-05T12:34:16.614Z,25.170835666103905
2023-05-05T12:37:17.245Z,25.24021300215036
2023-05-05T12:41:18.059Z,25.259484493798755
2023-05-05T12:44:16.938Z,25.2537030458745
2023-05-05T12:47:30.010Z,25.272974540387803
2023-05-05T12:51:18.988Z,25.19910050031258
2023-05-05T12:54:16.758Z,25.2106633895718
2023-05-05T12:57:16.876Z,25.17597472621428
2023-05-05T13:01:16.814Z,25.12201460957085
2023-05-05T13:04:18.038Z,25.119445081007235
2023-05-05T13:07:18.841Z,25.12972319569826
2023-05-05T13:11:16.227Z,25.113663642005122
2023-05-05T13:14:16.517Z,25.179829021488057
2023-05-05T13:17:16.597Z,25.211948155135996
2023-05-05T13:21:16.894Z,25.29160365564103
2023-05-05T13:27:16.856Z,25.38860359341488
2023-05-05T13:31:16.378Z,25.434855255880393
2023-05-05T13:34:16.861Z,25.506159948367802
2023-05-05T13:37:16.937Z,25.577464696884636
2023-05-05T13:41:16.099Z,25.66675630782347
2023-05-05T13:44:16.353Z,25.74576982099243
2023-05-05T13:47:16.296Z,25.82478340296011
2023-05-05T13:51:16.473Z,25.908936155346236
2023-05-05T13:54:16.795Z,26.026493184371155
2023-05-05T13:57:17.146Z,26.133772136108018
2023-05-05T14:01:16.215Z,26.261607699292018
2023-05-05T14:04:16.524Z,26.362463019440476
2023-05-05T14:07:17.056Z,26.50892826994532
2023-05-05T14:11:18.182Z,26.644473076421217
2023-05-05T14:14:16.475Z,26.743401641181936
2023-05-05T14:17:16.431Z,26.78836920627082
2023-05-05T14:21:16.337Z,26.812780179507627
2023-05-05T14:24:16.645Z,26.91620569159604
2023-05-05T14:27:16.745Z,26.948325439835024
2023-05-05T14:31:16.376Z,27.044042357005765
2023-05-05T14:34:16.684Z,27.038903191102964
2023-05-05T14:37:16.600Z,27.078089338462814
2023-05-05T14:41:15.872Z,27.17637597923831
2023-05-05T14:44:16.277Z,27.256033204108917
2023-05-05T14:47:16.260Z,27.324769736608506
2023-05-05T14:51:16.319Z,27.347253660408843
2023-05-05T14:54:27.521Z,27.40442709173694
2023-05-05T14:57:16.572Z,27.431407824649067
2023-05-05T15:01:16.346Z,27.472521337844956
2023-05-05T15:04:16.782Z,27.45903096427437
2023-05-05T15:07:16.919Z,27.481514921339475
2023-05-05T15:11:16.652Z,27.505926081031795
2023-05-05T15:14:17.092Z,27.496290096158283
2023-05-05T15:17:17.115Z,27.508495677170867
2023-05-05T15:21:16.223Z,27.46866694519158
2023-05-05T15:24:16.669Z,27.49307810142782
2023-05-05T15:27:18.299Z,27.472521337844956
2023-05-05T15:31:16.628Z,27.41277827011445
2023-05-05T15:34:17.114Z,27.433977418678115
2023-05-05T15:37:17.128Z,27.365240803459983
2023-05-05T15:41:16.485Z,27.320272952516916
2023-05-05T15:44:16.968Z,27.349180854136648
2023-05-05T15:47:17.077Z,27.41791745719029
2023-05-05T15:51:16.630Z,27.428838230692783
2023-05-05T15:54:16.951Z,27.39993030369815
2023-05-05T15:57:16.910Z,27.366525599528632
2023-05-05T16:01:16.731Z,27.347253660408843
2023-05-05T16:04:16.595Z,27.34596886461304
2023-05-05T16:07:17.354Z,27.30292821596522
2023-05-05T16:11:16.311Z,27.229052523338122
2023-05-05T16:14:16.758Z,27.197575072577457
2023-05-05T16:17:16.805Z,27.133335411026202
2023-05-05T16:21:16.062Z,27.04725433584281
2023-05-05T16:24:17.109Z,27.04018798255138
2023-05-05T16:27:16.602Z,26.97916040884011
2023-05-05T16:31:16.347Z,26.85325101802591
2023-05-05T16:34:16.668Z,26.75175275872789
2023-05-05T16:37:16.839Z,26.751110365043225
2023-05-05T16:41:16.821Z,26.63226761161932
2023-05-05T16:44:17.122Z,26.565458780736662
2023-05-05T16:47:17.315Z,26.488371729297796
2023-05-05T16:51:16.189Z,26.40293365712869
2023-05-05T16:54:16.315Z,26.33997933963483
2023-05-05T16:57:16.359Z,26.275097894856298
2023-05-05T17:01:16.011Z,26.153043817522484
2023-05-05T17:04:16.439Z,26.070818005342517
2023-05-05T17:07:16.425Z,25.996300927410267
2023-05-05T17:11:16.163Z,25.933346892014377
2023-05-05T17:14:16.780Z,25.84020069526823
2023-05-05T17:17:16.579Z,25.720716748392533
2023-05-05T17:21:16.540Z,25.653266202694795
2023-05-05T17:24:16.664Z,25.5357096571709
2023-05-05T17:27:16.756Z,25.447702944082266
2023-05-05T17:31:16.666Z,25.289676505609897
2023-05-05T17:34:17.089Z,25.22608057754269
2023-05-05T17:37:17.080Z,25.130365577905103
2023-05-05T17:41:16.958Z,24.965915881382898
2023-05-05T17:44:16.772Z,24.88176400351231
2023-05-05T17:47:17.031Z,24.758427041076448
2023-05-05T17:51:16.304Z,24.614534130110496
2023-05-05T18:01:20.924Z,24.329318498817976
2023-05-05T18:04:16.387Z,24.240028203908878
2023-05-05T18:07:16.193Z,24.158446500479567
2023-05-05T18:11:16.252Z,23.999137558783787
2023-05-05T18:14:17.670Z,23.891218757187108
2023-05-05T18:17:16.636Z,23.821200079564004
2023-05-05T18:21:16.360Z,23.69722218657489
2023-05-05T18:24:20.429Z,23.613071485249385
2023-05-05T18:27:16.883Z,23.511576850069467
2023-05-05T18:31:15.824Z,23.412651808572992
2023-05-05T18:34:17.293Z,23.329786110067015
2023-05-05T18:37:16.493Z,23.232788373065706
2023-05-05T18:41:16.246Z,23.16084309868893
2023-05-05T18:44:16.899Z,23.072838688845604
2023-05-05T18:47:16.593Z,23.012456150441814
2023-05-05T18:51:22.227Z,22.91160455356003
2023-05-05T18:54:16.973Z,22.833235874140883
2023-05-05T18:57:17.041Z,22.738165763736834
2023-05-05T19:01:16.684Z,22.638599200842965
2023-05-05T19:04:29.500Z,22.605196249378878
2023-05-05T19:07:27.912Z,22.554449481262417
2023-05-05T19:11:16.330Z,22.43111568212189
2023-05-05T19:14:18.357Z,22.332834180950975
2023-05-05T19:17:17.025Z,22.25639308696991
2023-05-05T19:21:16.758Z,22.190229839128826
2023-05-05T19:24:17.415Z,22.08038610701369
2023-05-05T19:27:17.378Z,21.96090711078141
2023-05-05T19:41:21.778Z,21.696897628619716
2023-05-05T19:44:22.981Z,21.615318211628257
2023-05-05T19:47:22.168Z,21.4727149974613
2023-05-05T19:51:17.458Z,21.41683001519641
2023-05-05T19:54:17.681Z,21.3281849415137
2023-05-05T19:57:17.807Z,21.29799424778321
2023-05-05T20:01:16.412Z,21.204852809149543
2023-05-05T20:04:16.744Z,21.096294977193246
2023-05-05T20:07:18.231Z,21.0487608194715
2023-05-05T20:11:16.694Z,20.94084552681452
2023-05-05T20:14:16.404Z,20.843207991671807
2023-05-05T20:17:20.104Z,20.728227081713793
2023-05-05T20:21:17.609Z,20.72116122049083
2023-05-05T20:31:16.850Z,20.46679058292684
2023-05-05T20:34:17.188Z,20.399986291295864
2023-05-05T20:37:17.059Z,20.33125500412507
2023-05-05T20:41:16.315Z,20.16617165792304
2023-05-05T20:44:16.808Z,20.117353294021814
2023-05-05T20:47:16.588Z,20.05376099096402
2023-05-05T20:51:16.484Z,19.977964162712397
2023-05-05T20:54:16.715Z,19.881612353796754
2023-05-05T20:57:16.846Z,19.779479548057132
2023-05-05T21:01:16.260Z,19.722310920816472
2023-05-05T21:21:16.722Z,19.165400447905995
2023-05-05T21:24:16.770Z,19.164115767952534
2023-05-05T21:27:16.925Z,19.085107985773448
2023-05-05T21:34:16.934Z,18.92580795123222
2023-05-05T21:37:16.932Z,18.816610508481336
2023-05-05T21:41:16.986Z,18.800552072102438
2023-05-05T21:44:16.904Z,18.73824536585971
2023-05-05T21:47:17.574Z,18.6913547801003
2023-05-05T21:51:16.262Z,18.60014302516356
2023-05-05T21:54:16.584Z,18.512143038647718
2023-05-05T21:57:16.575Z,18.42671247645376
2023-05-05T22:01:16.288Z,18.357340349792867
